sensor_id;sensor_type;location;lat;lon;timestamp;pressure;altitude;pressure_sealevel;temperature;humidity
49367;BME280;35245;52.026;8.540;2024-03-02T00:00:51;52628.50;;;-145.42;100.00
49367;BME280;35245;52.026;8.540;2024-03-02T00:03:19;52731.63;;;-145.42;100.00
49367;BME280;35245;52.026;8.540;2024-03-02T00:05:50;52680.06;;;-145.42;100.00
49367;BME280;35245;52.026;8.540;2024-03-02T00:08:24;52727.66;;;-145.42;100.00
49367;BME280;35245;52.026;8.540;2024-03-02T00:10:57;52723.69;;;-145.42;100.00
49367;BME280;35245;52.026;8.540;2024-03-02T00:13:25;52791.13;;;-145.42;100.00
49367;BME280;35245;52.026;8.540;2024-03-02T00:15:54;52741.53;;;-145.42;100.00
49367;BME280;35245;52.026;8.540;2024-03-02T00:18:25;52797.06;;;-145.42;100.00
49367;BME280;35245;52.026;8.540;2024-03-02T00:20:54;52860.53;;;-145.42;100.00
49367;BME280;35245;52.026;8.540;2024-03-02T00:23:23;52785.16;;;-145.42;100.00
49367;BME280;35245;52.026;8.540;2024-03-02T00:25:53;52967.63;;;-145.42;100.00
49367;BME280;35245;52.026;8.540;2024-03-02T00:28:22;52957.72;;;-145.42;100.00
49367;BME280;35245;52.026;8.540;2024-03-02T00:30:58;52896.22;;;-145.42;100.00
49367;BME280;35245;52.026;8.540;2024-03-02T00:33:32;53021.16;;;-145.42;100.00
49367;BME280;35245;52.026;8.540;2024-03-02T00:36:00;52888.28;;;-145.42;100.00
49367;BME280;35245;52.026;8.540;2024-03-02T00:38:29;52973.56;;;-145.42;100.00
49367;BME280;35245;52.026;8.540;2024-03-02T00:40:59;52916.06;;;-145.42;100.00
49367;BME280;35245;52.026;8.540;2024-03-02T00:43:43;52943.81;;;-145.42;100.00
49367;BME280;35245;52.026;8.540;2024-03-02T00:46:18;52888.28;;;-145.42;100.00
49367;BME280;35245;52.026;8.540;2024-03-02T00:48:54;53086.63;;;-145.42;100.00
49367;BME280;35245;52.026;8.540;2024-03-02T00:51:22;53084.63;;;-145.42;100.00
49367;BME280;35245;52.026;8.540;2024-03-02T00:53:49;53066.78;;;-145.42;100.00
49367;BME280;35245;52.026;8.540;2024-03-02T00:56:17;53100.50;;;-145.42;100.00
49367;BME280;35245;52.026;8.540;2024-03-02T00:58:44;53100.50;;;-145.42;100.00
49367;BME280;35245;52.026;8.540;2024-03-02T01:01:11;53175.84;;;-145.42;100.00
49367;BME280;35245;52.026;8.540;2024-03-02T01:03:40;53251.22;;;-145.42;100.00
49367;BME280;35245;52.026;8.540;2024-03-02T01:06:08;53144.13;;;-145.42;100.00
49367;BME280;35245;52.026;8.540;2024-03-02T01:08:35;53336.50;;;-145.42;100.00
49367;BME280;35245;52.026;8.540;2024-03-02T01:11:03;53320.66;;;-145.42;100.00
49367;BME280;35245;52.026;8.540;2024-03-02T01:13:31;53007.28;;;-145.42;100.00
49367;BME280;35245;52.026;8.540;2024-03-02T01:15:58;53140.16;;;-145.42;100.00
49367;BME280;35245;52.026;8.540;2024-03-02T01:18:26;53171.91;;;-145.42;100.00
49367;BME280;35245;52.026;8.540;2024-03-02T01:20:54;52999.34;;;-145.42;100.00
49367;BME280;35245;52.026;8.540;2024-03-02T01:23:22;53102.47;;;-145.42;100.00
49367;BME280;35245;52.026;8.540;2024-03-02T01:25:50;53217.50;;;-145.42;100.00
49367;BME280;35245;52.026;8.540;2024-03-02T01:28:17;53175.84;;;-145.42;100.00
49367;BME280;35245;52.026;8.540;2024-03-02T01:30:47;53122.31;;;-145.42;100.00
49367;BME280;35245;52.026;8.540;2024-03-02T01:33:15;52850.63;;;-145.42;100.00
49367;BME280;35245;52.026;8.540;2024-03-02T01:35:42;52725.69;;;-145.42;100.00
49367;BME280;35245;52.026;8.540;2024-03-02T01:38:11;52691.97;;;-145.42;100.00
49367;BME280;35245;52.026;8.540;2024-03-02T01:40:38;52709.81;;;-145.42;100.00
49367;BME280;35245;52.026;8.540;2024-03-02T01:43:05;52801.03;;;-145.42;100.00
49367;BME280;35245;52.026;8.540;2024-03-02T01:45:33;52884.31;;;-145.42;100.00
49367;BME280;35245;52.026;8.540;2024-03-02T01:48:01;52906.16;;;-145.42;100.00
49367;BME280;35245;52.026;8.540;2024-03-02T01:50:31;53048.94;;;-145.42;100.00
49367;BME280;35245;52.026;8.540;2024-03-02T01:52:59;53013.22;;;-145.42;100.00
49367;BME280;35245;52.026;8.540;2024-03-02T01:55:28;53084.63;;;-145.42;100.00
49367;BME280;35245;52.026;8.540;2024-03-02T01:57:56;52991.41;;;-145.42;100.00
49367;BME280;35245;52.026;8.540;2024-03-02T02:00:23;53048.94;;;-145.42;100.00
49367;BME280;35245;52.026;8.540;2024-03-02T02:02:52;53185.78;;;-145.42;100.00
49367;BME280;35245;52.026;8.540;2024-03-02T02:05:19;53076.69;;;-145.42;100.00
49367;BME280;35245;52.026;8.540;2024-03-02T02:07:47;53175.84;;;-145.42;100.00
49367;BME280;35245;52.026;8.540;2024-03-02T02:10:14;53027.13;;;-145.42;100.00
49367;BME280;35245;52.026;8.540;2024-03-02T02:12:43;53007.28;;;-145.42;100.00
49367;BME280;35245;52.026;8.540;2024-03-02T02:15:27;53058.84;;;-145.42;100.00
49367;BME280;35245;52.026;8.540;2024-03-02T02:17:54;52947.78;;;-145.42;100.00
49367;BME280;35245;52.026;8.540;2024-03-02T02:20:21;52993.41;;;-145.42;100.00
49367;BME280;35245;52.026;8.540;2024-03-02T02:22:58;52862.50;;;-145.42;100.00
49367;BME280;35245;52.026;8.540;2024-03-02T02:25:25;53054.88;;;-145.42;100.00
49367;BME280;35245;52.026;8.540;2024-03-02T02:27:53;52985.47;;;-145.42;100.00
49367;BME280;35245;52.026;8.540;2024-03-02T02:30:23;53037.03;;;-145.42;100.00
49367;BME280;35245;52.026;8.540;2024-03-02T02:32:50;52987.44;;;-145.42;100.00
49367;BME280;35245;52.026;8.540;2024-03-02T02:35:17;53076.69;;;-145.42;100.00
49367;BME280;35245;52.026;8.540;2024-03-02T02:37:44;53035.06;;;-145.42;100.00
49367;BME280;35245;52.026;8.540;2024-03-02T02:40:14;52721.72;;;-145.42;100.00
49367;BME280;35245;52.026;8.540;2024-03-02T02:42:41;52598.75;;;-145.42;100.00
49367;BME280;35245;52.026;8.540;2024-03-02T02:45:09;52924.00;;;-145.42;100.00
49367;BME280;35245;52.026;8.540;2024-03-02T02:47:36;52787.16;;;-145.42;100.00
49367;BME280;35245;52.026;8.540;2024-03-02T02:50:06;52608.69;;;-145.42;100.00
49367;BME280;35245;52.026;8.540;2024-03-02T02:52:34;52662.22;;;-145.42;100.00
49367;BME280;35245;52.026;8.540;2024-03-02T02:55:04;52761.38;;;-145.42;100.00
49367;BME280;35245;52.026;8.540;2024-03-02T02:57:33;52866.47;;;-145.42;100.00
49367;BME280;35245;52.026;8.540;2024-03-02T03:00:05;52733.63;;;-145.42;100.00
49367;BME280;35245;52.026;8.540;2024-03-02T03:02:39;52959.69;;;-145.42;100.00
49367;BME280;35245;52.026;8.540;2024-03-02T03:05:08;52668.16;;;-145.42;100.00
49367;BME280;35245;52.026;8.540;2024-03-02T03:07:36;52592.81;;;-145.42;100.00
49367;BME280;35245;52.026;8.540;2024-03-02T03:10:05;52733.63;;;-145.42;100.00
49367;BME280;35245;52.026;8.540;2024-03-02T03:12:34;52876.41;;;-145.42;100.00
49367;BME280;35245;52.026;8.540;2024-03-02T03:15:02;53211.56;;;-145.42;100.00
49367;BME280;35245;52.026;8.540;2024-03-02T03:17:30;53334.53;;;-145.42;100.00
49367;BME280;35245;52.026;8.540;2024-03-02T03:19:57;53177.84;;;-145.42;100.00
49367;BME280;35245;52.026;8.540;2024-03-02T03:22:24;53136.19;;;-145.42;100.00
49367;BME280;35245;52.026;8.540;2024-03-02T03:24:51;53132.22;;;-145.42;100.00
49367;BME280;35245;52.026;8.540;2024-03-02T03:27:19;53096.53;;;-145.42;100.00
49367;BME280;35245;52.026;8.540;2024-03-02T03:29:47;53076.69;;;-145.42;100.00
49367;BME280;35245;52.026;8.540;2024-03-02T03:32:15;53132.22;;;-145.42;100.00
49367;BME280;35245;52.026;8.540;2024-03-02T03:34:42;53011.25;;;-145.42;100.00
49367;BME280;35245;52.026;8.540;2024-03-02T03:37:09;53035.06;;;-145.42;100.00
49367;BME280;35245;52.026;8.540;2024-03-02T03:39:37;53144.13;;;-145.42;100.00
49367;BME280;35245;52.026;8.540;2024-03-02T03:42:04;53407.91;;;-145.42;100.00
49367;BME280;35245;52.026;8.540;2024-03-02T03:44:32;53554.69;;;-145.42;100.00
49367;BME280;35245;52.026;8.540;2024-03-02T03:47:00;53647.91;;;-145.42;100.00
49367;BME280;35245;52.026;8.540;2024-03-02T03:49:28;53711.38;;;-145.42;100.00
49367;BME280;35245;52.026;8.540;2024-03-02T03:51:55;53622.13;;;-145.42;100.00
49367;BME280;35245;52.026;8.540;2024-03-02T03:54:22;53669.72;;;-145.42;100.00
49367;BME280;35245;52.026;8.540;2024-03-02T03:56:49;53705.44;;;-145.42;100.00
49367;BME280;35245;52.026;8.540;2024-03-02T03:59:16;53852.22;;;-145.42;100.00
49367;BME280;35245;52.026;8.540;2024-03-02T04:01:43;53755.03;;;-145.42;100.00
49367;BME280;35245;52.026;8.540;2024-03-02T04:04:12;53671.72;;;-145.42;100.00
49367;BME280;35245;52.026;8.540;2024-03-02T04:06:39;53558.66;;;-145.42;100.00
49367;BME280;35245;52.026;8.540;2024-03-02T04:09:06;53705.44;;;-145.42;100.00
49367;BME280;35245;52.026;8.540;2024-03-02T04:11:34;53774.84;;;-145.42;100.00
49367;BME280;35245;52.026;8.540;2024-03-02T04:14:01;53800.66;;;-145.42;100.00
49367;BME280;35245;52.026;8.540;2024-03-02T04:16:28;53737.16;;;-145.42;100.00
49367;BME280;35245;52.026;8.540;2024-03-02T04:18:55;53711.38;;;-145.42;100.00
49367;BME280;35245;52.026;8.540;2024-03-02T04:21:24;53834.38;;;-145.42;100.00
49367;BME280;35245;52.026;8.540;2024-03-02T04:23:51;53824.44;;;-145.42;100.00
49367;BME280;35245;52.026;8.540;2024-03-02T04:26:23;53818.50;;;-145.42;100.00
49367;BME280;35245;52.026;8.540;2024-03-02T04:28:51;53788.75;;;-145.42;100.00
49367;BME280;35245;52.026;8.540;2024-03-02T04:31:18;53772.88;;;-145.42;100.00
49367;BME280;35245;52.026;8.540;2024-03-02T04:33:45;53731.22;;;-145.42;100.00
49367;BME280;35245;52.026;8.540;2024-03-02T04:36:12;53703.44;;;-145.42;100.00
49367;BME280;35245;52.026;8.540;2024-03-02T04:38:41;53677.66;;;-145.42;100.00
49367;BME280;35245;52.026;8.540;2024-03-02T04:41:08;53695.50;;;-145.42;100.00
49367;BME280;35245;52.026;8.540;2024-03-02T04:43:35;53590.38;;;-145.42;100.00
49367;BME280;35245;52.026;8.540;2024-03-02T04:46:02;53612.22;;;-145.42;100.00
49367;BME280;35245;52.026;8.540;2024-03-02T04:48:29;53703.44;;;-145.42;100.00
49367;BME280;35245;52.026;8.540;2024-03-02T04:50:57;53580.47;;;-145.42;100.00
49367;BME280;35245;52.026;8.540;2024-03-02T04:53:24;53548.75;;;-145.42;100.00
49367;BME280;35245;52.026;8.540;2024-03-02T04:55:52;53578.50;;;-145.42;100.00
49367;BME280;35245;52.026;8.540;2024-03-02T04:58:45;53639.97;;;-145.42;100.00
49367;BME280;35245;52.026;8.540;2024-03-02T05:01:12;53685.59;;;-145.42;100.00
49367;BME280;35245;52.026;8.540;2024-03-02T05:03:39;53673.69;;;-145.42;100.00
49367;BME280;35245;52.026;8.540;2024-03-02T05:06:06;53572.53;;;-145.42;100.00
49367;BME280;35245;52.026;8.540;2024-03-02T05:08:34;53721.31;;;-145.42;100.00
49367;BME280;35245;52.026;8.540;2024-03-02T05:11:03;53697.50;;;-145.42;100.00
49367;BME280;35245;52.026;8.540;2024-03-02T05:13:44;53639.97;;;-145.42;100.00
49367;BME280;35245;52.026;8.540;2024-03-02T05:16:11;53645.94;;;-145.42;100.00
49367;BME280;35245;52.026;8.540;2024-03-02T05:18:38;53639.97;;;-145.42;100.00
49367;BME280;35245;52.026;8.540;2024-03-02T05:21:05;53584.44;;;-145.42;100.00
49367;BME280;35245;52.026;8.540;2024-03-02T05:23:32;53653.88;;;-145.42;100.00
49367;BME280;35245;52.026;8.540;2024-03-02T05:26:01;53691.53;;;-145.42;100.00
49367;BME280;35245;52.026;8.540;2024-03-02T05:28:28;53762.97;;;-145.42;100.00
49367;BME280;35245;52.026;8.540;2024-03-02T05:30:55;53707.41;;;-145.42;100.00
49367;BME280;35245;52.026;8.540;2024-03-02T05:33:23;53586.41;;;-145.42;100.00
49367;BME280;35245;52.026;8.540;2024-03-02T05:35:50;53437.66;;;-145.42;100.00
49367;BME280;35245;52.026;8.540;2024-03-02T05:38:17;53376.19;;;-145.42;100.00
49367;BME280;35245;52.026;8.540;2024-03-02T05:40:44;52904.16;;;-145.42;100.00
49367;BME280;35245;52.026;8.540;2024-03-02T05:43:12;52783.19;;;-145.42;100.00
49367;BME280;35245;52.026;8.540;2024-03-02T05:45:40;52656.28;;;-145.42;100.00
49367;BME280;35245;52.026;8.540;2024-03-02T05:48:07;52531.34;;;-145.42;100.00
49367;BME280;35245;52.026;8.540;2024-03-02T05:50:34;52489.69;;;-145.42;100.00
49367;BME280;35245;52.026;8.540;2024-03-02T05:53:02;52446.06;;;-145.42;100.00
49367;BME280;35245;52.026;8.540;2024-03-02T05:55:29;52128.81;;;-145.42;100.00
49367;BME280;35245;52.026;8.540;2024-03-02T05:57:57;51726.34;;;-145.42;100.00
49367;BME280;35245;52.026;8.540;2024-03-02T06:00:42;51553.88;;;-145.42;100.00
49367;BME280;35245;52.026;8.540;2024-03-02T06:03:10;51536.03;;;-145.42;100.00
49367;BME280;35245;52.026;8.540;2024-03-02T06:05:37;51434.91;;;-145.42;100.00
49367;BME280;35245;52.026;8.540;2024-03-02T06:08:04;51403.19;;;-145.42;100.00
49367;BME280;35245;52.026;8.540;2024-03-02T06:10:32;51359.59;;;-145.42;100.00
49367;BME280;35245;52.026;8.540;2024-03-02T06:12:59;51355.63;;;-145.42;100.00
49367;BME280;35245;52.026;8.540;2024-03-02T06:15:26;51333.81;;;-145.42;100.00
49367;BME280;35245;52.026;8.540;2024-03-02T06:17:54;51319.94;;;-145.42;100.00
49367;BME280;35245;52.026;8.540;2024-03-02T06:20:21;51310.03;;;-145.42;100.00
49367;BME280;35245;52.026;8.540;2024-03-02T06:22:49;51321.91;;;-145.42;100.00
49367;BME280;35245;52.026;8.540;2024-03-02T06:25:16;51351.66;;;-145.42;100.00
49367;BME280;35245;52.026;8.540;2024-03-02T06:27:43;51357.59;;;-145.42;100.00
49367;BME280;35245;52.026;8.540;2024-03-02T06:30:12;51750.13;;;-145.42;100.00
49367;BME280;35245;52.026;8.540;2024-03-02T06:32:39;52632.47;;;-145.42;100.00
49367;BME280;35245;52.026;8.540;2024-03-02T06:35:08;53021.16;;;-145.42;100.00
49367;BME280;35245;52.026;8.540;2024-03-02T06:37:36;53146.13;;;-145.42;100.00
49367;BME280;35245;52.026;8.540;2024-03-02T06:40:04;53322.63;;;-145.42;100.00
49367;BME280;35245;52.026;8.540;2024-03-02T06:42:33;53273.03;;;-145.42;100.00
49367;BME280;35245;52.026;8.540;2024-03-02T06:45:00;53227.44;;;-145.42;100.00
49367;BME280;35245;52.026;8.540;2024-03-02T06:47:28;53161.97;;;-145.42;100.00
49367;BME280;35245;52.026;8.540;2024-03-02T06:49:55;53124.28;;;-145.42;100.00
49367;BME280;35245;52.026;8.540;2024-03-02T06:52:24;53037.03;;;-145.42;100.00
49367;BME280;35245;52.026;8.540;2024-03-02T06:54:51;52927.97;;;-145.42;100.00
49367;BME280;35245;52.026;8.540;2024-03-02T06:57:18;52852.59;;;-145.42;100.00
49367;BME280;35245;52.026;8.540;2024-03-02T06:59:46;52810.94;;;-145.42;100.00
49367;BME280;35245;52.026;8.540;2024-03-02T07:02:16;52894.25;;;-145.42;100.00
49367;BME280;35245;52.026;8.540;2024-03-02T07:04:43;53128.25;;;-145.42;100.00
49367;BME280;35245;52.026;8.540;2024-03-02T07:07:11;53199.66;;;-145.42;100.00
49367;BME280;35245;52.026;8.540;2024-03-02T07:09:39;53233.38;;;-145.42;100.00
49367;BME280;35245;52.026;8.540;2024-03-02T07:12:07;53193.72;;;-145.42;100.00
49367;BME280;35245;52.026;8.540;2024-03-02T07:14:35;53330.56;;;-145.42;100.00
49367;BME280;35245;52.026;8.540;2024-03-02T07:17:19;53382.13;;;-145.42;100.00
49367;BME280;35245;52.026;8.540;2024-03-02T07:19:46;53338.50;;;-145.42;100.00
49367;BME280;35245;52.026;8.540;2024-03-02T07:22:14;53304.78;;;-145.42;100.00
49367;BME280;35245;52.026;8.540;2024-03-02T07:24:43;53183.78;;;-145.42;100.00
49367;BME280;35245;52.026;8.540;2024-03-02T07:27:12;52703.88;;;-145.42;100.00
49367;BME280;35245;52.026;8.540;2024-03-02T07:29:40;52690.00;;;-145.42;100.00
49367;BME280;35245;52.026;8.540;2024-03-02T07:32:08;52626.53;;;-145.42;100.00
49367;BME280;35245;52.026;8.540;2024-03-02T07:34:36;52864.50;;;-145.42;100.00
49367;BME280;35245;52.026;8.540;2024-03-02T07:37:04;52908.13;;;-145.42;100.00
49367;BME280;35245;52.026;8.540;2024-03-02T07:39:31;52678.09;;;-145.42;100.00
49367;BME280;35245;52.026;8.540;2024-03-02T07:42:00;52773.28;;;-145.42;100.00
49367;BME280;35245;52.026;8.540;2024-03-02T07:44:27;52670.16;;;-145.42;100.00
49367;BME280;35245;52.026;8.540;2024-03-02T07:46:54;52537.28;;;-145.42;100.00
49367;BME280;35245;52.026;8.540;2024-03-02T07:49:22;52513.50;;;-145.42;100.00
49367;BME280;35245;52.026;8.540;2024-03-02T07:51:49;52259.69;;;-145.42;100.00
49367;BME280;35245;52.026;8.540;2024-03-02T07:54:16;52029.69;;;-145.42;100.00
49367;BME280;35245;52.026;8.540;2024-03-02T07:56:44;51875.03;;;-145.42;100.00
49367;BME280;35245;52.026;8.540;2024-03-02T07:59:13;51924.59;;;-145.42;100.00
49367;BME280;35245;52.026;8.540;2024-03-02T08:01:40;51773.94;;;-145.42;100.00
49367;BME280;35245;52.026;8.540;2024-03-02T08:04:07;51720.41;;;-145.42;100.00
49367;BME280;35245;52.026;8.540;2024-03-02T08:06:34;51678.75;;;-145.42;100.00
49367;BME280;35245;52.026;8.540;2024-03-02T08:09:02;52467.91;;;-145.42;100.00
49367;BME280;35245;52.026;8.540;2024-03-02T08:11:30;52594.81;;;-145.42;100.00
49367;BME280;35245;52.026;8.540;2024-03-02T08:13:57;52360.81;;;-145.42;100.00
49367;BME280;35245;52.026;8.540;2024-03-02T08:16:26;52257.72;;;-145.42;100.00
49367;BME280;35245;52.026;8.540;2024-03-02T08:18:53;52237.88;;;-145.42;100.00
49367;BME280;35245;52.026;8.540;2024-03-02T08:21:23;52225.97;;;-145.42;100.00
49367;BME280;35245;52.026;8.540;2024-03-02T08:23:50;52368.75;;;-145.42;100.00
49367;BME280;35245;52.026;8.540;2024-03-02T08:26:18;51958.31;;;-145.42;100.00
49367;BME280;35245;52.026;8.540;2024-03-02T08:28:45;51970.22;;;-145.42;100.00
49367;BME280;35245;52.026;8.540;2024-03-02T08:31:12;51976.16;;;-145.42;100.00
49367;BME280;35245;52.026;8.540;2024-03-02T08:33:40;51871.06;;;-145.42;100.00
49367;BME280;35245;52.026;8.540;2024-03-02T08:36:08;51988.06;;;-145.42;100.00
49367;BME280;35245;52.026;8.540;2024-03-02T08:38:36;51940.47;;;-145.42;100.00
49367;BME280;35245;52.026;8.540;2024-03-02T08:41:04;51964.25;;;-145.42;100.00
49367;BME280;35245;52.026;8.540;2024-03-02T08:43:31;51732.28;;;-145.42;100.00
49367;BME280;35245;52.026;8.540;2024-03-02T08:45:58;51686.69;;;-145.42;100.00
49367;BME280;35245;52.026;8.540;2024-03-02T08:48:25;51627.22;;;-145.42;100.00
49367;BME280;35245;52.026;8.540;2024-03-02T08:50:54;51619.28;;;-145.42;100.00
49367;BME280;35245;52.026;8.540;2024-03-02T08:53:21;51557.84;;;-145.42;100.00
49367;BME280;35245;52.026;8.540;2024-03-02T08:55:48;51569.72;;;-145.42;100.00
49367;BME280;35245;52.026;8.540;2024-03-02T08:58:15;51563.78;;;-145.42;100.00
49367;BME280;35245;52.026;8.540;2024-03-02T09:00:43;51466.63;;;-145.42;100.00
49367;BME280;35245;52.026;8.540;2024-03-02T09:03:10;51476.56;;;-145.42;100.00
49367;BME280;35245;52.026;8.540;2024-03-02T09:05:37;51425.00;;;-145.42;100.00
49367;BME280;35245;52.026;8.540;2024-03-02T09:08:06;51417.06;;;-145.42;100.00
49367;BME280;35245;52.026;8.540;2024-03-02T09:10:33;51567.75;;;-145.42;100.00
49367;BME280;35245;52.026;8.540;2024-03-02T09:18:13;51482.50;;;-145.42;100.00
49367;BME280;35245;52.026;8.540;2024-03-02T09:20:41;51397.25;;;-145.42;100.00
49367;BME280;35245;52.026;8.540;2024-03-02T09:23:09;51391.31;;;-145.42;100.00
49367;BME280;35245;52.026;8.540;2024-03-02T09:25:36;51425.00;;;-145.42;100.00
49367;BME280;35245;52.026;8.540;2024-03-02T09:28:05;51343.72;;;-145.42;100.00
49367;BME280;35245;52.026;8.540;2024-03-02T09:30:33;51319.94;;;-145.42;100.00
49367;BME280;35245;52.026;8.540;2024-03-02T09:33:00;51296.16;;;-145.42;100.00
49367;BME280;35245;52.026;8.540;2024-03-02T09:35:27;51284.25;;;-145.42;100.00
49367;BME280;35245;52.026;8.540;2024-03-02T09:37:55;51278.31;;;-145.42;100.00
49367;BME280;35245;52.026;8.540;2024-03-02T09:40:23;51260.47;;;-145.42;100.00
49367;BME280;35245;52.026;8.540;2024-03-02T09:42:51;51236.69;;;-145.42;100.00
49367;BME280;35245;52.026;8.540;2024-03-02T09:45:23;51197.03;;;-145.42;100.00
49367;BME280;35245;52.026;8.540;2024-03-02T09:47:51;51244.63;;;-145.42;100.00
49367;BME280;35245;52.026;8.540;2024-03-02T09:50:18;51228.75;;;-145.42;100.00
49367;BME280;35245;52.026;8.540;2024-03-02T09:52:48;51208.94;;;-145.42;100.00
49367;BME280;35245;52.026;8.540;2024-03-02T09:55:16;51242.63;;;-145.42;100.00
49367;BME280;35245;52.026;8.540;2024-03-02T09:57:46;51252.53;;;-145.42;100.00
49367;BME280;35245;52.026;8.540;2024-03-02T10:00:15;51197.03;;;-145.42;100.00
49367;BME280;35245;52.026;8.540;2024-03-02T10:02:42;51208.94;;;-145.42;100.00
49367;BME280;35245;52.026;8.540;2024-03-02T10:05:10;51220.81;;;-145.42;100.00
49367;BME280;35245;52.026;8.540;2024-03-02T10:07:37;51169.28;;;-145.42;100.00
49367;BME280;35245;52.026;8.540;2024-03-02T10:10:14;51155.41;;;-145.42;100.00
49367;BME280;35245;52.026;8.540;2024-03-02T10:12:42;51177.22;;;-145.42;100.00
49367;BME280;35245;52.026;8.540;2024-03-02T10:15:10;51201.00;;;-145.42;100.00
49367;BME280;35245;52.026;8.540;2024-03-02T10:17:37;51163.34;;;-145.42;100.00
49367;BME280;35245;52.026;8.540;2024-03-02T10:20:23;51179.19;;;-145.42;100.00
49367;BME280;35245;52.026;8.540;2024-03-02T10:22:50;51169.28;;;-145.42;100.00
49367;BME280;35245;52.026;8.540;2024-03-02T10:25:29;51131.63;;;-145.42;100.00
49367;BME280;35245;52.026;8.540;2024-03-02T10:27:58;51145.50;;;-145.42;100.00
49367;BME280;35245;52.026;8.540;2024-03-02T10:30:27;51195.06;;;-145.42;100.00
49367;BME280;35245;52.026;8.540;2024-03-02T10:32:55;51183.16;;;-145.42;100.00
49367;BME280;35245;52.026;8.540;2024-03-02T10:35:23;51171.28;;;-145.42;100.00
49367;BME280;35245;52.026;8.540;2024-03-02T10:37:52;51123.69;;;-145.42;100.00
49367;BME280;35245;52.026;8.540;2024-03-02T10:40:22;51155.41;;;-145.42;100.00
49367;BME280;35245;52.026;8.540;2024-03-02T10:42:50;51187.13;;;-145.42;100.00
49367;BME280;35245;52.026;8.540;2024-03-02T10:45:20;51137.56;;;-145.42;100.00
49367;BME280;35245;52.026;8.540;2024-03-02T10:47:50;51143.50;;;-145.42;100.00
49367;BME280;35245;52.026;8.540;2024-03-02T10:50:17;51169.28;;;-145.42;100.00
49367;BME280;35245;52.026;8.540;2024-03-02T10:52:45;51109.81;;;-145.42;100.00
49367;BME280;35245;52.026;8.540;2024-03-02T10:55:12;51091.97;;;-145.42;100.00
49367;BME280;35245;52.026;8.540;2024-03-02T10:57:48;51115.75;;;-145.42;100.00
49367;BME280;35245;52.026;8.540;2024-03-02T11:00:18;51135.59;;;-145.42;100.00
49367;BME280;35245;52.026;8.540;2024-03-02T11:02:55;51129.63;;;-145.42;100.00
49367;BME280;35245;52.026;8.540;2024-03-02T11:05:28;51119.72;;;-145.42;100.00
49367;BME280;35245;52.026;8.540;2024-03-02T11:08:00;51119.72;;;-145.42;100.00
49367;BME280;35245;52.026;8.540;2024-03-02T11:10:34;51056.28;;;-145.42;100.00
49367;BME280;35245;52.026;8.540;2024-03-02T11:13:05;51004.75;;;-145.42;100.00
49367;BME280;35245;52.026;8.540;2024-03-02T11:15:35;51016.66;;;-145.42;100.00
49367;BME280;35245;52.026;8.540;2024-03-02T11:18:06;51036.47;;;-145.42;100.00
49367;BME280;35245;52.026;8.540;2024-03-02T11:20:36;51022.59;;;-145.42;100.00
49367;BME280;35245;52.026;8.540;2024-03-02T11:23:06;51042.41;;;-145.42;100.00
49367;BME280;35245;52.026;8.540;2024-03-02T11:25:33;51004.75;;;-145.42;100.00
49367;BME280;35245;52.026;8.540;2024-03-02T11:28:06;51014.66;;;-145.42;100.00
49367;BME280;35245;52.026;8.540;2024-03-02T11:30:54;51008.72;;;-145.42;100.00
49367;BME280;35245;52.026;8.540;2024-03-02T11:33:26;51012.69;;;-145.42;100.00
49367;BME280;35245;52.026;8.540;2024-03-02T11:35:57;51026.56;;;-145.42;100.00
49367;BME280;35245;52.026;8.540;2024-03-02T11:38:32;50988.91;;;-145.42;100.00
49367;BME280;35245;52.026;8.540;2024-03-02T11:41:01;50998.81;;;-145.42;100.00
49367;BME280;35245;52.026;8.540;2024-03-02T11:43:28;51008.72;;;-145.42;100.00
49367;BME280;35245;52.026;8.540;2024-03-02T11:46:00;50998.81;;;-145.42;100.00
49367;BME280;35245;52.026;8.540;2024-03-02T11:48:31;51010.72;;;-145.42;100.00
49367;BME280;35245;52.026;8.540;2024-03-02T11:51:00;51002.78;;;-145.42;100.00
49367;BME280;35245;52.026;8.540;2024-03-02T11:53:28;50885.81;;;-145.42;100.00
49367;BME280;35245;52.026;8.540;2024-03-02T11:55:56;50838.25;;;-145.42;100.00
49367;BME280;35245;52.026;8.540;2024-03-02T11:58:23;50852.13;;;-145.42;100.00
49367;BME280;35245;52.026;8.540;2024-03-02T12:00:52;50822.41;;;-145.42;99.66
49367;BME280;35245;52.026;8.540;2024-03-02T12:03:22;50844.22;;;-145.42;84.09
49367;BME280;35245;52.026;8.540;2024-03-02T12:05:53;50830.34;;;-145.42;71.67
49367;BME280;35245;52.026;8.540;2024-03-02T12:08:21;50842.22;;;-145.42;63.77
49367;BME280;35245;52.026;8.540;2024-03-02T12:10:59;50862.03;;;-145.42;60.84
49367;BME280;35245;52.026;8.540;2024-03-02T12:13:27;50858.06;;;-145.42;55.04
49367;BME280;35245;52.026;8.540;2024-03-02T12:15:55;50862.03;;;-145.42;49.46
49367;BME280;35245;52.026;8.540;2024-03-02T12:18:23;50891.78;;;-145.42;48.55
49367;BME280;35245;52.026;8.540;2024-03-02T12:20:52;50885.81;;;-145.42;45.89
49367;BME280;35245;52.026;8.540;2024-03-02T12:23:23;50858.06;;;-145.42;43.65
49367;BME280;35245;52.026;8.540;2024-03-02T12:25:50;50854.13;;;-145.42;44.93
49367;BME280;35245;52.026;8.540;2024-03-02T12:28:18;50909.63;;;-145.42;42.83
49367;BME280;35245;52.026;8.540;2024-03-02T12:30:46;50858.06;;;-145.42;43.32
49367;BME280;35245;52.026;8.540;2024-03-02T12:33:13;50856.09;;;-145.42;46.11
49367;BME280;35245;52.026;8.540;2024-03-02T12:35:41;50868.00;;;-145.42;45.73
49367;BME280;35245;52.026;8.540;2024-03-02T12:38:10;50796.63;;;-145.42;48.42
49367;BME280;35245;52.026;8.540;2024-03-02T12:40:37;50862.03;;;-145.42;48.02
49367;BME280;35245;52.026;8.540;2024-03-02T12:43:06;50846.19;;;-145.42;46.17